createdAt,value
2023-01-21T00:00:32.991Z,21.91
2023-01-21T00:01:33.013Z,21.90
2023-01-21T00:02:33.003Z,21.91
2023-01-21T00:03:32.940Z,21.92
2023-01-21T00:04:32.897Z,21.91
2023-01-21T00:05:32.869Z,21.92
2023-01-21T00:06:32.846Z,21.91
2023-01-21T00:07:32.827Z,21.91
2023-01-21T00:08:32.814Z,21.91
2023-01-21T00:09:32.783Z,21.91
2023-01-21T00:10:32.754Z,21.90
2023-01-21T00:11:32.721Z,21.91
2023-01-21T00:12:32.702Z,21.90
2023-01-21T00:13:32.683Z,21.90
2023-01-21T00:14:32.658Z,21.91
2023-01-21T00:15:32.683Z,21.91
2023-01-21T00:16:32.626Z,21.91
2023-01-21T00:17:32.592Z,21.90
2023-01-21T00:18:32.578Z,21.91
2023-01-21T00:19:32.565Z,21.90
2023-01-21T00:20:32.543Z,21.91
2023-01-21T00:21:32.527Z,21.91
2023-01-21T00:22:32.509Z,21.90
2023-01-21T00:23:32.497Z,21.90
2023-01-21T00:24:32.461Z,21.90
2023-01-21T00:25:32.448Z,21.89
2023-01-21T00:26:32.441Z,21.91
2023-01-21T00:27:32.403Z,21.90
2023-01-21T00:28:32.389Z,21.90
2023-01-21T00:29:32.368Z,21.90
2023-01-21T00:30:32.396Z,21.89
2023-01-21T00:31:32.447Z,21.90
2023-01-21T00:32:32.307Z,21.90
2023-01-21T00:33:32.291Z,21.90
2023-01-21T00:34:32.258Z,21.90
2023-01-21T00:35:32.245Z,21.89
2023-01-21T00:36:32.222Z,21.89
2023-01-21T00:37:32.176Z,21.90
2023-01-21T00:38:32.146Z,21.90
2023-01-21T00:39:32.124Z,21.89
2023-01-21T00:40:32.096Z,21.89
2023-01-21T00:41:32.092Z,21.89
2023-01-21T00:42:32.047Z,21.88
2023-01-21T00:43:32.025Z,21.89
2023-01-21T00:44:31.990Z,21.89
2023-01-21T00:45:31.967Z,21.89
2023-01-21T00:46:31.983Z,21.88
2023-01-21T00:47:31.921Z,21.88
2023-01-21T00:48:31.892Z,21.88
2023-01-21T00:49:31.866Z,21.88
2023-01-21T00:50:31.856Z,21.88
2023-01-21T00:51:31.826Z,21.88
2023-01-21T00:52:31.812Z,21.88
2023-01-21T00:53:31.798Z,21.88
2023-01-21T00:54:31.764Z,21.89
2023-01-21T00:55:31.760Z,21.88
2023-01-21T00:56:31.725Z,21.89
2023-01-21T00:57:31.709Z,21.88
2023-01-21T00:58:31.700Z,21.88
2023-01-21T00:59:31.670Z,21.88
2023-01-21T01:00:31.644Z,21.88
2023-01-21T01:01:31.677Z,21.88
2023-01-21T01:02:31.645Z,21.87
2023-01-21T01:03:31.614Z,21.88
2023-01-21T01:04:31.558Z,21.88
2023-01-21T01:05:31.538Z,21.88
2023-01-21T01:06:31.519Z,21.88
2023-01-21T01:07:31.509Z,21.88
2023-01-21T01:08:31.503Z,21.87
2023-01-21T01:09:31.475Z,21.87
2023-01-21T01:10:31.444Z,21.88
2023-01-21T01:11:31.412Z,21.87
2023-01-21T01:12:31.396Z,21.87
2023-01-21T01:13:31.363Z,21.87
2023-01-21T01:14:31.330Z,21.87
2023-01-21T01:15:31.310Z,21.87
2023-01-21T01:16:31.289Z,21.86
2023-01-21T01:17:31.246Z,21.87
2023-01-21T01:18:31.224Z,21.86
2023-01-21T01:19:31.199Z,21.86
2023-01-21T01:20:31.178Z,21.85
2023-01-21T01:21:31.155Z,21.85
2023-01-21T01:22:31.124Z,21.86
2023-01-21T01:23:31.126Z,21.86
2023-01-21T01:24:31.092Z,21.86
2023-01-21T01:25:31.065Z,21.85
2023-01-21T01:26:31.039Z,21.86
2023-01-21T01:27:31.009Z,21.87
2023-01-21T01:28:30.993Z,21.86
2023-01-21T01:29:30.978Z,21.86
2023-01-21T01:30:30.967Z,21.86
2023-01-21T01:31:30.965Z,21.85
2023-01-21T01:32:30.895Z,21.85
2023-01-21T01:33:30.874Z,21.85
2023-01-21T01:34:30.854Z,21.85
2023-01-21T01:35:30.838Z,21.86
2023-01-21T01:36:30.812Z,21.86
2023-01-21T01:37:30.789Z,21.86
2023-01-21T01:38:30.772Z,21.86
2023-01-21T01:39:30.743Z,21.86
2023-01-21T01:40:30.713Z,21.86
2023-01-21T01:41:30.725Z,21.86
2023-01-21T01:42:30.655Z,21.85
2023-01-21T01:43:30.637Z,21.85
2023-01-21T01:44:30.607Z,21.85
2023-01-21T01:45:30.575Z,21.85
2023-01-21T01:46:30.639Z,21.85
2023-01-21T01:47:30.524Z,21.85
2023-01-21T01:48:30.507Z,21.85
2023-01-21T01:49:30.482Z,21.85
2023-01-21T01:50:30.448Z,21.85
2023-01-21T01:51:30.427Z,21.85
2023-01-21T01:52:30.400Z,21.85
2023-01-21T01:53:30.384Z,21.86
2023-01-21T01:54:30.361Z,21.85
2023-01-21T01:55:30.334Z,21.85
2023-01-21T01:56:30.299Z,21.85
2023-01-21T01:57:30.287Z,21.85
2023-01-21T01:58:30.260Z,21.85
2023-01-21T01:59:30.229Z,21.84
2023-01-21T02:00:30.215Z,21.84
2023-01-21T02:01:30.289Z,21.83
2023-01-21T02:02:30.175Z,21.83
2023-01-21T02:03:30.131Z,21.84
2023-01-21T02:04:30.128Z,21.84
2023-01-21T02:05:30.072Z,21.84
2023-01-21T02:06:30.039Z,21.84
2023-01-21T02:07:30.040Z,21.83
2023-01-21T02:08:29.997Z,21.84
2023-01-21T02:09:30.111Z,21.84
2023-01-21T02:10:29.966Z,21.85
2023-01-21T02:11:29.945Z,21.83
2023-01-21T02:12:29.929Z,21.84
2023-01-21T02:13:29.901Z,21.83
2023-01-21T02:14:29.882Z,21.84
2023-01-21T02:15:29.869Z,21.84
2023-01-21T02:16:29.880Z,21.83
2023-01-21T02:17:29.814Z,21.82
2023-01-21T02:18:29.789Z,21.82
2023-01-21T02:19:29.771Z,21.83
2023-01-21T02:20:29.752Z,21.82
2023-01-21T02:21:29.726Z,21.83
2023-01-21T02:22:29.706Z,21.83
2023-01-21T02:23:29.678Z,21.83
2023-01-21T02:24:29.641Z,21.82
2023-01-21T02:25:29.623Z,21.83
2023-01-21T02:26:29.596Z,21.83
2023-01-21T02:27:30.996Z,21.83
2023-01-21T02:28:29.548Z,21.83
2023-01-21T02:29:29.519Z,21.83
2023-01-21T02:30:29.484Z,21.82
2023-01-21T02:31:29.536Z,21.83
2023-01-21T02:32:29.439Z,21.83
2023-01-21T02:33:29.419Z,21.83
2023-01-21T02:34:29.399Z,21.82
2023-01-21T02:35:29.388Z,21.82
2023-01-21T02:36:29.377Z,21.82
2023-01-21T02:37:29.344Z,21.82
2023-01-21T02:38:29.329Z,21.82
2023-01-21T02:39:29.310Z,21.83
2023-01-21T02:40:29.308Z,21.81
2023-01-21T02:41:29.265Z,21.82
2023-01-21T02:42:29.260Z,21.81
2023-01-21T02:43:29.230Z,21.81
2023-01-21T02:44:29.197Z,21.82
2023-01-21T02:45:29.180Z,21.81
2023-01-21T02:46:29.205Z,21.81
2023-01-21T02:47:29.152Z,21.80
2023-01-21T02:48:29.119Z,21.80
2023-01-21T02:49:29.101Z,21.81
2023-01-21T02:50:29.073Z,21.82
2023-01-21T02:51:29.050Z,21.82
2023-01-21T02:52:29.032Z,21.81
2023-01-21T02:53:29.010Z,21.81
2023-01-21T02:54:28.980Z,21.81
2023-01-21T02:55:28.962Z,21.81
2023-01-21T02:56:28.942Z,21.81
2023-01-21T02:57:28.909Z,21.79
2023-01-21T05:26:25.172Z,21.74
2023-01-21T05:27:25.150Z,21.73
2023-01-21T05:28:25.120Z,21.73
2023-01-21T05:29:25.097Z,21.73
2023-01-21T05:30:25.077Z,21.73
2023-01-21T05:31:25.259Z,21.74
2023-01-21T05:32:25.018Z,21.74
2023-01-21T05:33:24.991Z,21.73
2023-01-21T05:34:24.955Z,21.73
2023-01-21T05:35:24.933Z,21.73
2023-01-21T05:36:24.905Z,21.73
2023-01-21T05:37:24.887Z,21.74
2023-01-21T05:38:24.872Z,21.74
2023-01-21T05:39:24.858Z,21.73
2023-01-21T05:40:24.834Z,21.73
2023-01-21T05:41:24.815Z,21.73
2023-01-21T05:42:24.796Z,21.73
2023-01-21T05:43:24.777Z,21.73
2023-01-21T05:44:24.770Z,21.72
2023-01-21T05:45:24.734Z,21.72
2023-01-21T05:46:24.734Z,21.72
2023-01-21T05:47:24.673Z,21.72
2023-01-21T05:48:24.648Z,21.72
2023-01-21T05:49:24.637Z,21.72
2023-01-21T05:50:24.596Z,21.72
2023-01-21T05:51:24.617Z,21.72
2023-01-21T05:52:24.538Z,21.72
2023-01-21T05:53:24.510Z,21.72
2023-01-21T05:54:24.489Z,21.72
2023-01-21T05:55:24.468Z,21.72
2023-01-21T05:56:24.436Z,21.72
2023-01-21T05:57:24.408Z,21.71
2023-01-21T05:58:24.397Z,21.71
2023-01-21T05:59:24.373Z,21.71
2023-01-21T06:00:24.361Z,21.72
2023-01-21T06:01:24.331Z,21.71
2023-01-21T06:02:24.339Z,21.71
2023-01-21T06:03:24.290Z,21.71
2023-01-21T06:04:24.257Z,21.72
2023-01-21T06:05:24.249Z,21.72
2023-01-21T06:06:24.232Z,21.73
2023-01-21T06:07:24.221Z,21.72
2023-01-21T06:08:24.189Z,21.72
2023-01-21T06:09:24.183Z,21.72
2023-01-21T06:10:24.162Z,21.72
2023-01-21T06:11:24.144Z,21.72
2023-01-21T06:12:24.952Z,21.72
2023-01-21T06:13:24.108Z,21.71
2023-01-21T06:14:24.105Z,21.71
2023-01-21T06:15:24.058Z,21.71
2023-01-21T06:16:24.093Z,21.72
2023-01-21T06:17:24.010Z,21.73
2023-01-21T06:18:23.990Z,21.72
2023-01-21T06:19:23.951Z,21.71
2023-01-21T06:20:23.940Z,21.71
2023-01-21T06:21:23.938Z,21.71
2023-01-21T06:22:23.879Z,21.72
2023-01-21T06:23:23.867Z,21.73
2023-01-21T06:24:23.852Z,21.72
2023-01-21T06:25:23.830Z,21.72
2023-01-21T06:26:25.562Z,21.71
2023-01-21T06:27:23.803Z,21.72
2023-01-21T06:28:23.801Z,21.72
2023-01-21T06:29:23.790Z,21.72
2023-01-21T06:30:23.746Z,21.71
2023-01-21T06:31:23.809Z,21.71
2023-01-21T06:32:23.716Z,21.70
2023-01-21T06:33:23.701Z,21.71
2023-01-21T06:34:23.661Z,21.72
2023-01-21T06:35:23.648Z,21.71
2023-01-21T06:36:23.630Z,21.71
2023-01-21T06:37:23.599Z,21.71
2023-01-21T06:38:23.586Z,21.71
2023-01-21T06:39:23.557Z,21.71
2023-01-21T06:40:23.536Z,21.71
2023-01-21T06:41:23.518Z,21.71
2023-01-21T06:42:23.498Z,21.71
2023-01-21T06:43:23.473Z,21.71
2023-01-21T06:44:23.469Z,21.70
2023-01-21T06:45:23.429Z,21.71
2023-01-21T06:46:23.499Z,21.70
2023-01-21T06:47:23.399Z,21.70
2023-01-21T06:48:23.378Z,21.70
2023-01-21T06:49:23.347Z,21.71
2023-01-21T06:50:23.349Z,21.70
2023-01-21T06:51:23.329Z,21.70
2023-01-21T06:52:23.272Z,21.71
2023-01-21T06:53:23.250Z,21.70
2023-01-21T06:54:23.233Z,21.69
2023-01-21T06:55:23.205Z,21.69
2023-01-21T06:56:23.188Z,21.70
2023-01-21T06:57:23.167Z,21.70
2023-01-21T06:58:23.131Z,21.70
2023-01-21T06:59:23.099Z,21.71
2023-01-21T07:00:23.081Z,21.70
2023-01-21T07:01:23.096Z,21.71
2023-01-21T07:02:23.083Z,21.71
2023-01-21T07:03:23.002Z,21.71
2023-01-21T07:04:22.977Z,21.71
2023-01-21T07:05:22.953Z,21.71
2023-01-21T07:06:22.945Z,21.71
2023-01-21T07:07:22.912Z,21.71
2023-01-21T07:08:22.885Z,21.71
2023-01-21T07:09:22.873Z,21.72
2023-01-21T07:10:22.829Z,21.70
2023-01-21T07:11:22.797Z,21.70
2023-01-21T07:12:22.788Z,21.69
2023-01-21T07:13:22.754Z,21.70
2023-01-21T07:14:22.728Z,21.70
2023-01-21T07:15:22.689Z,21.71
2023-01-21T07:16:22.695Z,21.69
2023-01-21T07:17:22.646Z,21.70
2023-01-21T07:18:22.613Z,21.70
2023-01-21T07:19:22.588Z,21.70
2023-01-21T07:20:22.568Z,21.71
2023-01-21T07:21:22.527Z,21.71
2023-01-21T07:22:22.504Z,21.70
2023-01-21T07:23:22.476Z,21.70
2023-01-21T07:24:22.445Z,21.70
2023-01-21T07:25:22.418Z,21.71
2023-01-21T07:26:22.399Z,21.71
2023-01-21T07:27:22.366Z,21.71
2023-01-21T07:28:22.387Z,21.71
2023-01-21T07:29:22.329Z,21.71
2023-01-21T07:30:22.297Z,21.70
2023-01-21T07:31:22.437Z,21.71
2023-01-21T07:32:22.297Z,21.72
2023-01-21T07:33:22.239Z,21.71
2023-01-21T07:34:22.283Z,21.71
2023-01-21T07:35:22.203Z,21.71
2023-01-21T07:36:22.172Z,21.71
2023-01-21T07:37:22.154Z,21.71
2023-01-21T07:38:22.151Z,21.71
2023-01-21T07:39:22.123Z,21.71
2023-01-21T07:40:22.106Z,21.71
2023-01-21T07:41:22.078Z,21.71
2023-01-21T07:42:22.095Z,21.71
2023-01-21T07:43:22.055Z,21.71
2023-01-21T07:44:22.031Z,21.72
2023-01-21T07:45:22.027Z,21.71
2023-01-21T07:46:22.007Z,21.71
2023-01-21T07:47:21.983Z,21.71
2023-01-21T07:48:21.954Z,21.72
2023-01-21T07:49:21.966Z,21.73
2023-01-21T07:50:21.936Z,21.72
2023-01-21T07:51:21.940Z,21.72
2023-01-21T07:52:21.880Z,21.73
2023-01-21T07:53:21.853Z,21.72
2023-01-21T07:54:21.823Z,21.73
2023-01-21T07:55:21.768Z,21.74
2023-01-21T07:56:21.759Z,21.72
2023-01-21T07:57:21.758Z,21.73
2023-01-21T07:58:21.729Z,21.73
2023-01-21T07:59:21.698Z,21.73
2023-01-21T08:00:21.662Z,21.74
2023-01-21T08:01:24.469Z,21.74
2023-01-21T08:02:21.741Z,21.73
2023-01-21T08:03:21.588Z,21.74
2023-01-21T08:04:21.569Z,21.74
2023-01-21T08:05:21.541Z,21.73
2023-01-21T08:06:21.517Z,21.74
2023-01-21T08:07:21.509Z,21.75
2023-01-21T08:08:21.470Z,21.74
2023-01-21T08:09:21.439Z,21.74
2023-01-21T08:10:21.413Z,21.74
2023-01-21T08:11:21.390Z,21.75
2023-01-21T08:12:21.369Z,21.75
2023-01-21T08:13:21.338Z,21.74
2023-01-21T08:14:21.316Z,21.75
2023-01-21T08:15:21.278Z,21.75
2023-01-21T08:16:21.302Z,21.76
2023-01-21T08:17:21.219Z,21.76
2023-01-21T08:18:21.224Z,21.76
2023-01-21T08:19:21.183Z,21.76
2023-01-21T08:20:21.154Z,21.75
2023-01-21T08:21:21.124Z,21.75
2023-01-21T08:22:21.098Z,21.76
2023-01-21T08:23:21.086Z,21.76
2023-01-21T08:24:21.054Z,21.76
2023-01-21T08:25:21.026Z,21.76
2023-01-21T08:26:21.000Z,21.76
2023-01-21T08:27:20.972Z,21.76
2023-01-21T08:28:20.953Z,21.77
2023-01-21T08:29:20.921Z,21.77
2023-01-21T08:30:20.896Z,21.77
2023-01-21T08:31:20.900Z,21.77
2023-01-21T08:32:20.830Z,21.77
2023-01-21T08:33:20.811Z,21.77
2023-01-21T08:34:20.780Z,21.78
2023-01-21T08:35:20.749Z,21.78
2023-01-21T08:36:20.718Z,21.77
2023-01-21T08:37:20.691Z,21.78
2023-01-21T08:38:20.667Z,21.78
2023-01-21T08:39:20.639Z,21.79
2023-01-21T08:40:20.621Z,21.79
2023-01-21T08:41:20.598Z,21.79
2023-01-21T08:42:20.554Z,21.79
2023-01-21T08:43:20.529Z,21.80
2023-01-21T08:44:20.501Z,21.80
2023-01-21T08:45:20.900Z,21.80
2023-01-21T08:46:20.445Z,21.81
2023-01-21T08:47:20.416Z,21.82
2023-01-21T08:48:20.409Z,21.81
2023-01-21T08:49:20.362Z,21.81
2023-01-21T08:50:20.345Z,21.82
2023-01-21T08:51:20.333Z,21.82
2023-01-21T08:52:20.283Z,21.82
2023-01-21T08:53:20.281Z,21.82
2023-01-21T08:54:20.268Z,21.82
2023-01-21T08:55:20.209Z,21.82
2023-01-21T08:56:20.195Z,21.83
2023-01-21T08:57:20.180Z,21.82
2023-01-21T08:58:20.143Z,21.82
2023-01-21T08:59:20.117Z,21.82
2023-01-21T09:00:20.097Z,21.82
2023-01-21T09:01:20.135Z,21.82
2023-01-21T09:02:20.127Z,21.82
2023-01-21T09:03:20.025Z,21.83
2023-01-21T09:04:19.995Z,21.83
2023-01-21T09:05:19.990Z,21.82
2023-01-21T09:06:19.934Z,21.83
2023-01-21T09:07:19.910Z,21.83
2023-01-21T09:08:19.873Z,21.84
2023-01-21T09:09:19.848Z,21.83
2023-01-21T09:10:19.845Z,21.84
2023-01-21T09:11:19.797Z,21.84
2023-01-21T09:12:19.786Z,21.83
2023-01-21T09:13:19.765Z,21.85
2023-01-21T09:14:19.742Z,21.84
2023-01-21T09:15:19.726Z,21.84
2023-01-21T09:16:19.746Z,21.84
2023-01-21T09:17:19.673Z,21.85
2023-01-21T09:18:19.662Z,21.85
2023-01-21T09:19:19.622Z,21.86
2023-01-21T09:20:19.588Z,21.86
2023-01-21T09:21:19.562Z,21.86
2023-01-21T09:22:19.550Z,21.86
2023-01-21T09:23:19.490Z,21.86
2023-01-21T09:24:19.474Z,21.86
2023-01-21T09:25:21.466Z,21.87
2023-01-21T09:26:19.414Z,21.87
2023-01-21T09:27:19.377Z,21.86
2023-01-21T09:28:19.345Z,21.87
2023-01-21T09:29:19.312Z,21.87
2023-01-21T09:30:19.271Z,21.88
2023-01-21T09:31:19.277Z,21.88
2023-01-21T09:32:19.223Z,21.88
2023-01-21T09:33:19.194Z,21.88
2023-01-21T09:34:19.155Z,21.89
2023-01-21T09:35:19.131Z,21.88
2023-01-21T09:36:19.115Z,21.89
2023-01-21T09:37:19.054Z,21.90
2023-01-21T09:38:19.023Z,21.89
2023-01-21T09:39:18.993Z,21.89
2023-01-21T09:40:19.013Z,21.90
2023-01-21T09:41:18.963Z,21.90
2023-01-21T09:42:18.925Z,21.90
2023-01-21T09:43:18.901Z,21.90
2023-01-21T09:44:18.904Z,21.90
2023-01-21T09:45:19.049Z,21.90
2023-01-21T09:46:18.904Z,21.91
2023-01-21T09:47:18.794Z,21.91
2023-01-21T09:48:18.773Z,21.92
2023-01-21T09:49:18.751Z,21.93
2023-01-21T09:50:18.748Z,21.92
2023-01-21T09:51:18.740Z,21.92
2023-01-21T09:52:18.666Z,21.92
2023-01-21T09:53:18.641Z,21.93
2023-01-21T09:54:18.635Z,21.93
2023-01-21T09:55:19.154Z,21.92
2023-01-21T09:56:18.594Z,21.92
2023-01-21T10:00:18.581Z,21.93
2023-01-21T14:58:10.119Z,21.95
2023-01-21T15:04:09.952Z,21.94
2023-01-21T15:05:09.937Z,21.93
2023-01-21T15:06:09.937Z,21.92
2023-01-21T15:07:09.907Z,21.93
2023-01-21T15:08:09.834Z,21.93
2023-01-21T15:09:09.940Z,21.92
2023-01-21T15:10:09.777Z,21.93
2023-01-21T15:11:09.752Z,21.92
2023-01-21T15:12:09.729Z,21.92
2023-01-21T15:13:09.712Z,21.92
2023-01-21T15:14:09.739Z,21.92
2023-01-21T15:15:09.659Z,21.92
2023-01-21T15:16:09.657Z,21.93
2023-01-21T15:17:09.595Z,21.91
2023-01-21T15:18:09.824Z,21.91
2023-01-21T15:19:09.567Z,21.91
2023-01-21T15:20:09.532Z,21.91
2023-01-21T15:21:09.506Z,21.91
2023-01-21T15:22:09.473Z,21.91
2023-01-21T15:23:09.512Z,21.90
2023-01-21T15:24:09.426Z,21.91
2023-01-21T15:25:09.393Z,21.91
2023-01-21T15:26:09.366Z,21.91
2023-01-21T15:27:09.338Z,21.92
2023-01-21T15:28:09.311Z,21.90
2023-01-21T15:29:09.302Z,21.90
2023-01-21T15:30:09.291Z,21.91
2023-01-21T15:31:09.415Z,21.91
2023-01-21T15:32:09.369Z,21.90
2023-01-21T15:33:09.222Z,21.90
2023-01-21T15:34:09.181Z,21.90
2023-01-21T15:35:09.164Z,21.90
2023-01-21T15:36:09.143Z,21.90
2023-01-21T15:37:09.109Z,21.90
2023-01-21T15:38:09.117Z,21.90
2023-01-21T15:39:09.063Z,21.90
2023-01-21T15:40:09.085Z,21.89
2023-01-21T15:41:09.023Z,21.88
2023-01-21T15:42:09.030Z,21.88
2023-01-21T15:43:08.988Z,21.89
2023-01-21T15:44:08.970Z,21.88
2023-01-21T15:45:08.951Z,21.88
2023-01-21T15:46:08.970Z,21.88
2023-01-21T15:47:08.896Z,21.88
2023-01-21T15:48:08.901Z,21.88
2023-01-21T19:00:03.576Z,21.77
2023-01-21T19:01:13.873Z,21.76
2023-01-21T19:02:04.565Z,21.76
2023-01-21T19:03:03.510Z,21.76
2023-01-21T19:04:03.464Z,21.76
2023-01-21T19:05:03.463Z,21.76
2023-01-21T19:06:03.419Z,21.75
2023-01-21T19:07:03.400Z,21.75
2023-01-21T19:08:03.400Z,21.75
2023-01-21T19:09:03.347Z,21.75
2023-01-21T19:10:03.307Z,21.76
2023-01-21T19:11:03.301Z,21.76
2023-01-21T19:12:03.281Z,21.76
2023-01-21T19:13:03.233Z,21.75
2023-01-21T19:14:03.209Z,21.75
2023-01-21T19:15:03.198Z,21.75
2023-01-21T19:16:03.174Z,21.76
2023-01-21T19:17:03.140Z,21.76
2023-01-21T19:18:03.103Z,21.75
2023-01-21T19:19:05.115Z,21.75
2023-01-21T19:20:03.072Z,21.75
2023-01-21T19:21:03.046Z,21.75
2023-01-21T19:22:03.017Z,21.75
2023-01-21T19:23:02.981Z,21.75
2023-01-21T19:24:02.968Z,21.74
2023-01-21T19:25:02.935Z,21.75
2023-01-21T19:26:02.911Z,21.74
2023-01-21T19:27:02.875Z,21.74
2023-01-21T19:28:02.844Z,21.75
2023-01-21T19:29:02.847Z,21.74
2023-01-21T19:30:02.804Z,21.74
2023-01-21T19:31:02.818Z,21.74
2023-01-21T19:32:02.754Z,21.74
2023-01-21T19:33:02.701Z,21.74
2023-01-21T19:34:02.695Z,21.75
2023-01-21T19:35:02.697Z,21.73
2023-01-21T19:36:02.629Z,21.74
2023-01-21T19:37:02.597Z,21.74
2023-01-21T19:38:02.569Z,21.74
2023-01-21T19:39:02.523Z,21.75
2023-01-21T19:40:02.485Z,21.74
2023-01-21T19:41:02.459Z,21.74
2023-01-21T19:42:08.453Z,21.74
2023-01-21T19:43:03.414Z,21.74
2023-01-21T19:44:02.394Z,21.74
2023-01-21T19:45:02.367Z,21.74
2023-01-21T19:46:02.340Z,21.74
2023-01-21T19:47:02.967Z,21.73
2023-01-21T19:48:02.287Z,21.74
2023-01-21T19:49:02.277Z,21.74
2023-01-21T19:50:02.232Z,21.74
2023-01-21T19:51:02.315Z,21.75
2023-01-21T19:52:02.175Z,21.74
2023-01-21T19:53:02.154Z,21.73
2023-01-21T19:54:02.143Z,21.74
2023-01-21T19:55:02.100Z,21.74
2023-01-21T19:56:02.074Z,21.75
2023-01-21T19:57:02.054Z,21.75
2023-01-21T19:58:02.045Z,21.73
2023-01-21T19:59:02.002Z,21.73
2023-01-21T20:00:01.983Z,21.74
2023-01-21T20:01:01.999Z,21.73
2023-01-21T20:02:01.954Z,21.74
2023-01-21T20:03:01.899Z,21.74
2023-01-21T20:04:01.883Z,21.74
2023-01-21T20:05:01.844Z,21.74
2023-01-21T20:06:01.814Z,21.74
2023-01-21T20:07:01.799Z,21.74
2023-01-21T20:08:01.761Z,21.75
2023-01-21T20:09:01.759Z,21.75
2023-01-21T20:11:01.685Z,21.74
2023-01-21T20:12:04.178Z,21.74
2023-01-21T20:13:01.620Z,21.74
2023-01-21T20:14:01.611Z,21.75
2023-01-21T20:15:01.556Z,21.74
2023-01-21T20:16:01.544Z,21.73
2023-01-21T20:17:01.488Z,21.73
2023-01-21T20:18:01.467Z,21.74
2023-01-21T20:19:01.423Z,21.74
2023-01-21T20:20:01.404Z,21.74
2023-01-21T20:21:01.371Z,21.74
2023-01-21T20:22:02.915Z,21.73
2023-01-21T20:23:01.301Z,21.74
2023-01-21T20:24:01.267Z,21.75
2023-01-21T20:25:01.260Z,21.74
2023-01-21T20:26:01.237Z,21.74
2023-01-21T20:27:01.212Z,21.74
2023-01-21T20:28:01.183Z,21.74
2023-01-21T20:29:01.149Z,21.75
2023-01-21T20:30:16.318Z,21.74
2023-01-21T20:31:02.130Z,21.73
2023-01-21T20:32:01.138Z,21.73
2023-01-21T20:33:01.041Z,21.73
2023-01-21T20:34:01.009Z,21.73
2023-01-21T20:35:00.985Z,21.74
2023-01-21T20:36:00.974Z,21.74
2023-01-21T20:37:00.944Z,21.74
2023-01-21T20:38:00.925Z,21.74
2023-01-21T20:39:00.914Z,21.74
2023-01-21T20:40:00.892Z,21.73
2023-01-21T20:41:00.882Z,21.73
2023-01-21T20:42:00.856Z,21.74
2023-01-21T20:43:00.819Z,21.74
2023-01-21T20:44:00.785Z,21.73
2023-01-21T20:45:00.748Z,21.73
2023-01-21T20:46:00.785Z,21.73
2023-01-21T20:47:00.695Z,21.74
2023-01-21T20:48:00.696Z,21.73
2023-01-21T20:49:00.669Z,21.74
2023-01-21T20:50:00.622Z,21.73
2023-01-21T20:51:00.666Z,21.73
2023-01-21T20:52:00.559Z,21.74
2023-01-21T20:53:00.533Z,21.74
2023-01-21T20:54:00.498Z,21.73
2023-01-21T20:55:00.482Z,21.73
2023-01-21T20:56:00.535Z,21.73
2023-01-21T20:57:00.428Z,21.73
2023-01-21T20:58:00.419Z,21.73
2023-01-21T20:59:00.379Z,21.73
2023-01-21T21:00:00.457Z,21.73
2023-01-21T21:01:00.429Z,21.72
2023-01-21T21:02:00.365Z,21.72
2023-01-21T21:03:00.312Z,21.72
2023-01-21T21:04:00.263Z,21.73
2023-01-21T21:05:00.245Z,21.73
2023-01-21T21:06:00.215Z,21.73
2023-01-21T21:07:00.197Z,21.72
2023-01-21T21:08:00.173Z,21.72
2023-01-21T21:09:00.151Z,21.73
2023-01-21T21:10:00.204Z,21.72
2023-01-21T21:11:00.109Z,21.72
2023-01-21T21:12:00.117Z,21.71
2023-01-21T21:13:00.103Z,21.72
2023-01-21T21:14:00.046Z,21.72
2023-01-21T21:15:00.016Z,21.72
2023-01-21T21:15:59.982Z,21.72
2023-01-21T21:16:59.975Z,21.71
2023-01-21T21:17:59.939Z,21.70
2023-01-21T21:18:59.915Z,21.71
2023-01-21T21:19:59.921Z,21.71
2023-01-21T21:20:59.917Z,21.72
2023-01-21T21:21:59.844Z,21.72
2023-01-21T21:22:59.817Z,21.71
2023-01-21T21:23:59.786Z,21.71
2023-01-21T21:24:59.759Z,21.72
2023-01-21T21:25:59.728Z,21.72
2023-01-21T21:26:59.720Z,21.72
2023-01-21T21:27:59.674Z,21.71
2023-01-21T21:28:59.676Z,21.72
2023-01-21T21:29:59.621Z,21.72
2023-01-21T21:30:59.615Z,21.71
2023-01-21T21:31:59.590Z,21.71
2023-01-21T21:32:59.520Z,21.71
2023-01-21T21:33:59.493Z,21.72
2023-01-21T21:34:59.446Z,21.72
2023-01-21T21:35:59.428Z,21.72
2023-01-21T21:36:59.387Z,21.72
2023-01-21T21:37:59.360Z,21.72
2023-01-21T21:38:59.326Z,21.72
2023-01-21T21:39:59.298Z,21.72
2023-01-21T21:40:59.265Z,21.71
2023-01-21T21:41:59.238Z,21.71
2023-01-21T21:42:59.276Z,21.72
2023-01-21T21:43:59.198Z,21.73
2023-01-21T21:44:59.166Z,21.72
2023-01-21T21:45:59.170Z,21.72
2023-01-21T21:46:59.977Z,21.72
2023-01-21T21:47:59.075Z,21.71
2023-01-21T21:48:59.036Z,21.72
2023-01-21T21:49:58.999Z,21.72
2023-01-21T21:50:58.989Z,21.71
2023-01-21T21:51:58.954Z,21.71
2023-01-21T21:52:58.943Z,21.71
2023-01-21T21:53:58.941Z,21.71
2023-01-21T22:18:58.237Z,21.71
2023-01-21T22:19:58.232Z,21.71
2023-01-21T22:20:58.150Z,21.70
2023-01-21T22:21:58.126Z,21.70
2023-01-21T22:22:58.106Z,21.71
2023-01-21T22:23:58.096Z,21.71
2023-01-21T22:24:58.035Z,21.71
2023-01-21T22:25:58.019Z,21.70
2023-01-21T22:26:58.001Z,21.71
2023-01-21T22:27:57.960Z,21.71
2023-01-21T22:28:57.941Z,21.70
2023-01-21T22:29:59.213Z,21.71
2023-01-21T22:31:58.231Z,21.71
2023-01-21T22:32:58.057Z,21.70
2023-01-21T22:33:58.042Z,21.71
2023-01-21T22:34:58.017Z,21.70
2023-01-21T22:35:57.998Z,21.70
2023-01-21T22:36:57.965Z,21.68
2023-01-21T22:37:57.917Z,21.69
2023-01-21T22:38:57.898Z,21.69
2023-01-21T22:39:57.866Z,21.69
2023-01-21T22:40:57.831Z,21.70
2023-01-21T22:41:57.815Z,21.69
2023-01-21T22:42:57.788Z,21.69
2023-01-21T22:43:57.780Z,21.69
2023-01-21T22:44:57.724Z,21.70
2023-01-21T22:45:57.682Z,21.70
2023-01-21T22:46:57.637Z,21.70
2023-01-21T22:47:57.597Z,21.69
2023-01-21T22:48:57.607Z,21.70
2023-01-21T22:49:57.525Z,21.70
2023-01-21T22:50:57.574Z,21.70
2023-01-21T22:51:57.466Z,21.70
2023-01-21T22:52:57.433Z,21.70
2023-01-21T22:53:57.392Z,21.69
2023-01-21T22:54:57.359Z,21.69
2023-01-21T22:55:57.377Z,21.69
2023-01-21T22:56:57.304Z,21.69
2023-01-21T22:57:57.283Z,21.69
2023-01-21T22:58:57.261Z,21.70
2023-01-21T22:59:57.245Z,21.69
2023-01-21T23:00:57.262Z,21.69
2023-01-21T23:01:57.201Z,21.69
2023-01-21T23:02:57.182Z,21.69
2023-01-21T23:03:57.152Z,21.69
2023-01-21T23:04:57.249Z,21.69
2023-01-21T23:05:57.109Z,21.69
2023-01-21T23:06:57.088Z,21.69
2023-01-21T23:07:57.053Z,21.69
2023-01-21T23:08:57.020Z,21.69
2023-01-21T23:09:57.007Z,21.69
2023-01-21T23:10:56.977Z,21.68
2023-01-21T23:11:56.953Z,21.69
2023-01-21T23:12:56.913Z,21.68
2023-01-21T23:13:56.884Z,21.68
2023-01-21T23:14:56.873Z,21.68
2023-01-21T23:15:56.890Z,21.68
2023-01-21T23:16:56.830Z,21.68
2023-01-21T23:17:56.816Z,21.68
2023-01-21T23:18:56.797Z,21.67
2023-01-21T23:19:56.787Z,21.68
2023-01-21T23:20:56.789Z,21.68
2023-01-21T23:21:56.746Z,21.68
2023-01-21T23:22:56.707Z,21.68
2023-01-21T23:23:56.666Z,21.68
2023-01-21T23:24:56.652Z,21.68
2023-01-21T23:25:56.647Z,21.68
2023-01-21T23:26:56.609Z,21.67
2023-01-21T23:27:56.562Z,21.67
2023-01-21T23:28:56.534Z,21.66
2023-01-21T23:29:56.512Z,21.68
2023-01-21T23:30:56.610Z,21.67
2023-01-21T23:31:56.513Z,21.68
2023-01-21T23:32:56.431Z,21.67
2023-01-21T23:33:56.400Z,21.67
2023-01-21T23:34:56.382Z,21.67
2023-01-21T23:35:56.363Z,21.66
2023-01-21T23:36:56.345Z,21.67
2023-01-21T23:37:56.315Z,21.67
2023-01-21T23:38:56.297Z,21.67
2023-01-21T23:39:56.280Z,21.66
2023-01-21T23:40:56.249Z,21.67
2023-01-21T23:41:56.207Z,21.66
2023-01-21T23:42:56.195Z,21.67
2023-01-21T23:43:56.146Z,21.67
2023-01-21T23:44:56.115Z,21.67
2023-01-21T23:45:56.104Z,21.66
2023-01-21T23:46:56.050Z,21.67
2023-01-21T23:47:56.047Z,21.66
2023-01-21T23:48:55.990Z,21.67
2023-01-21T23:49:55.985Z,21.67
2023-01-21T23:50:55.991Z,21.67
2023-01-21T23:51:55.926Z,21.66
2023-01-21T23:52:55.901Z,21.67
2023-01-21T23:53:55.882Z,21.67
2023-01-21T23:54:55.851Z,21.66
2023-01-21T23:55:55.821Z,21.66
2023-01-21T23:56:55.787Z,21.66
2023-01-21T23:57:55.760Z,21.67
2023-01-21T23:58:55.733Z,21.66
2023-01-21T23:59:55.691Z,21.66
